createdAt,value
2023-02-22T00:01:08.229Z,28.13
2023-02-22T00:02:44.993Z,27.75
2023-02-22T00:04:21.150Z,28.80
2023-02-22T00:05:58.037Z,28.38
2023-02-22T00:07:29.776Z,28.70
2023-02-22T00:09:03.254Z,25.40
2023-02-22T00:10:35.239Z,26.25
2023-02-22T00:12:08.579Z,27.30
2023-02-22T00:13:44.062Z,26.88
2023-02-22T00:15:17.420Z,28.80
2023-02-22T00:16:51.495Z,29.98
2023-02-22T00:18:27.761Z,27.90
2023-02-22T00:20:00.911Z,29.10
2023-02-22T00:21:33.611Z,29.60
2023-02-22T00:23:08.039Z,27.65
2023-02-22T00:24:39.770Z,28.38
2023-02-22T00:26:13.158Z,24.85
2023-02-22T00:27:47.893Z,22.88
2023-02-22T00:29:20.589Z,26.67
2023-02-22T00:30:54.684Z,28.13
2023-02-22T00:32:27.504Z,25.33
2023-02-22T00:34:00.526Z,24.23
2023-02-22T00:35:34.662Z,28.45
2023-02-22T00:37:07.645Z,28.40
2023-02-22T00:38:41.382Z,26.13
2023-02-22T00:40:17.744Z,25.02
2023-02-22T00:41:50.642Z,26.73
2023-02-22T00:43:24.956Z,26.13
2023-02-22T00:44:57.644Z,26.00
2023-02-22T00:46:30.346Z,27.48
2023-02-22T00:48:03.237Z,25.55
2023-02-22T00:49:36.281Z,26.65
2023-02-22T00:51:10.326Z,25.42
2023-02-22T00:52:43.518Z,30.17
2023-02-22T00:54:17.015Z,28.02
2023-02-22T00:55:50.407Z,25.67
2023-02-22T00:57:23.227Z,26.17
2023-02-22T00:58:55.967Z,23.90
2023-02-22T01:00:30.237Z,23.83
2023-02-22T01:02:02.988Z,22.73
2023-02-22T01:03:35.815Z,25.58
2023-02-22T01:05:10.110Z,25.85
2023-02-22T01:06:44.452Z,26.08
2023-02-22T01:08:18.386Z,24.42
2023-02-22T01:09:50.122Z,25.95
2023-02-22T01:11:23.194Z,26.77
2023-02-22T01:12:57.031Z,25.00
2023-02-22T01:14:30.012Z,26.98
2023-02-22T01:16:03.127Z,26.10
2023-02-22T01:17:34.863Z,25.67
2023-02-22T01:19:07.543Z,28.33
2023-02-22T01:20:40.385Z,28.45
2023-02-22T01:22:14.402Z,26.83
2023-02-22T01:23:48.073Z,27.67
2023-02-22T01:25:21.997Z,28.55
2023-02-22T01:26:54.698Z,24.13
2023-02-22T01:28:29.033Z,26.52
2023-02-22T01:30:01.929Z,26.02
2023-02-22T01:31:34.661Z,27.60
2023-02-22T01:33:08.801Z,24.95
2023-02-22T01:34:41.614Z,26.75
2023-02-22T01:36:14.320Z,26.52
2023-02-22T01:37:48.464Z,26.52
2023-02-22T01:39:21.166Z,26.17
2023-02-22T01:40:53.158Z,27.95
2023-02-22T01:42:25.906Z,26.00
2023-02-22T01:43:58.669Z,26.88
2023-02-22T01:45:58.354Z,27.30
2023-02-22T01:47:31.065Z,24.23
2023-02-22T01:49:06.499Z,24.45
2023-02-22T01:50:44.015Z,24.17
2023-02-22T01:52:19.958Z,26.75
2023-02-22T01:53:56.414Z,28.05
2023-02-22T01:55:28.838Z,26.08
2023-02-22T01:57:07.173Z,27.20
2023-02-22T01:58:42.110Z,29.45
2023-02-22T02:00:21.144Z,24.83
2023-02-22T02:01:53.927Z,26.23
2023-02-22T02:03:30.191Z,27.30
2023-02-22T02:05:08.179Z,28.40
2023-02-22T02:06:42.828Z,26.65
2023-02-22T02:08:24.329Z,27.65
2023-02-22T02:10:01.671Z,29.02
2023-02-22T02:11:34.863Z,26.45
2023-02-22T02:13:06.629Z,27.58
2023-02-22T02:14:40.412Z,28.02
2023-02-22T02:16:14.607Z,28.90
2023-02-22T02:17:46.965Z,27.10
2023-02-22T02:19:26.694Z,25.70
2023-02-22T02:21:41.501Z,32.30
2023-02-22T02:23:37.182Z,30.35
2023-02-22T02:25:43.127Z,28.98
2023-02-22T02:27:19.929Z,30.50
2023-02-22T02:29:37.785Z,28.35
2023-02-22T02:31:37.595Z,27.33
2023-02-22T02:33:18.239Z,27.90
2023-02-22T02:34:55.669Z,25.88
2023-02-22T02:36:32.598Z,24.17
2023-02-22T02:38:12.833Z,25.05
2023-02-22T02:39:50.558Z,26.52
2023-02-22T02:41:27.905Z,24.15
2023-02-22T02:43:04.929Z,23.17
2023-02-22T02:44:42.006Z,23.25
2023-02-22T02:46:20.107Z,25.27
2023-02-22T02:47:58.594Z,24.33
2023-02-22T02:49:37.756Z,27.52
2023-02-22T02:51:14.598Z,23.63
2023-02-22T02:52:47.934Z,26.98
2023-02-22T02:54:21.921Z,24.23
2023-02-22T02:55:54.679Z,23.92
2023-02-22T02:57:27.030Z,23.40
2023-02-22T02:58:59.712Z,25.50
2023-02-22T03:00:39.131Z,21.05
2023-02-22T03:02:28.286Z,24.30
2023-02-22T03:04:13.184Z,23.25
2023-02-22T03:06:06.922Z,27.15
2023-02-22T03:07:49.227Z,22.77
2023-02-22T03:09:36.478Z,22.48
2023-02-22T03:11:16.051Z,25.70
2023-02-22T03:12:55.320Z,22.52
2023-02-22T03:14:35.083Z,21.20
2023-02-22T03:16:20.241Z,20.55
2023-02-22T03:17:57.929Z,22.10
2023-02-22T03:19:36.673Z,24.45
2023-02-22T03:21:18.724Z,24.73
2023-02-22T03:22:58.273Z,24.40
2023-02-22T03:24:33.777Z,24.08
2023-02-22T03:26:11.925Z,26.98
2023-02-22T03:27:48.221Z,24.67
2023-02-22T03:29:24.468Z,27.20
2023-02-22T03:30:59.133Z,22.50
2023-02-22T03:32:37.066Z,21.65
2023-02-22T03:34:12.890Z,22.85
2023-02-22T03:35:51.284Z,25.23
2023-02-22T03:37:28.846Z,23.55
2023-02-22T03:39:04.247Z,22.70
2023-02-22T03:40:43.305Z,27.77
2023-02-22T03:42:19.860Z,28.40
2023-02-22T03:43:58.320Z,54.38
2023-02-22T03:45:32.976Z,38.53
2023-02-22T03:47:10.587Z,43.58
2023-02-22T03:48:49.683Z,31.85
2023-02-22T03:50:29.698Z,27.48
2023-02-22T03:52:03.726Z,31.52
2023-02-22T03:53:37.997Z,48.75
2023-02-22T03:55:11.974Z,33.90
2023-02-22T03:56:51.784Z,47.45
2023-02-22T03:58:25.570Z,34.30
2023-02-22T03:59:58.381Z,28.58
2023-02-22T04:01:31.292Z,25.88
2023-02-22T04:03:03.622Z,27.70
2023-02-22T04:04:36.447Z,27.55
2023-02-22T04:06:10.407Z,29.58
2023-02-22T04:07:43.258Z,27.40
2023-02-22T04:09:17.471Z,26.40
2023-02-22T04:10:50.149Z,31.23
2023-02-22T04:12:22.876Z,30.88
2023-02-22T04:13:55.788Z,32.13
2023-02-22T04:15:28.473Z,32.15
2023-02-22T04:17:01.389Z,31.35
2023-02-22T04:18:34.099Z,32.33
2023-02-22T04:20:06.709Z,28.45
2023-02-22T04:21:39.501Z,30.83
2023-02-22T04:23:12.577Z,27.65
2023-02-22T04:24:46.916Z,27.20
2023-02-22T04:26:19.808Z,28.40
2023-02-22T04:27:53.456Z,27.67
2023-02-22T04:29:26.169Z,26.75
2023-02-22T04:30:58.884Z,27.40
2023-02-22T04:32:31.612Z,25.77
2023-02-22T04:34:04.562Z,22.42
2023-02-22T04:35:37.440Z,24.42
2023-02-22T04:37:10.800Z,24.17
2023-02-22T04:38:43.588Z,24.67
2023-02-22T04:40:18.569Z,23.83
2023-02-22T04:41:51.406Z,26.85
2023-02-22T04:43:24.102Z,30.42
2023-02-22T04:44:56.772Z,25.83
2023-02-22T04:46:29.710Z,31.58
2023-02-22T04:48:01.480Z,30.67
2023-02-22T04:49:34.177Z,30.23
2023-02-22T04:51:08.422Z,35.25
2023-02-22T04:52:41.470Z,39.90
2023-02-22T04:54:13.666Z,31.15
2023-02-22T04:55:47.869Z,29.58
2023-02-22T04:57:19.670Z,29.35
2023-02-22T04:58:52.406Z,30.08
2023-02-22T05:00:25.253Z,29.80
2023-02-22T05:01:57.954Z,29.25
2023-02-22T05:03:30.637Z,28.90
2023-02-22T05:05:03.392Z,25.73
2023-02-22T05:06:35.208Z,27.13
2023-02-22T05:08:07.902Z,26.30
2023-02-22T05:09:40.616Z,25.38
2023-02-22T05:11:14.903Z,24.65
2023-02-22T05:12:47.849Z,30.17
2023-02-22T05:14:20.589Z,30.55
2023-02-22T05:15:54.339Z,47.58
2023-02-22T05:17:26.088Z,26.40
2023-02-22T05:18:58.858Z,32.50
2023-02-22T05:20:33.824Z,88.38
2023-02-22T05:22:06.509Z,27.85
2023-02-22T05:23:38.283Z,25.20
2023-02-22T05:25:11.269Z,21.63
2023-02-22T05:26:45.777Z,21.88
2023-02-22T05:28:18.614Z,22.17
2023-02-22T05:29:51.331Z,19.55
2023-02-22T05:31:24.098Z,21.33
2023-02-22T05:32:56.869Z,22.85
2023-02-22T05:34:30.156Z,48.38
2023-02-22T05:36:03.112Z,26.40
2023-02-22T05:37:36.799Z,24.35
2023-02-22T05:39:09.474Z,25.63
2023-02-22T05:40:41.545Z,24.02
2023-02-22T05:42:15.563Z,27.05
2023-02-22T05:43:48.666Z,24.13
2023-02-22T05:45:23.816Z,25.02
2023-02-22T05:46:56.514Z,26.08
2023-02-22T05:48:29.266Z,25.63
2023-02-22T05:50:02.493Z,45.60
2023-02-22T05:51:35.204Z,27.52
2023-02-22T05:53:07.893Z,33.30
2023-02-22T05:54:40.600Z,27.85
2023-02-22T05:56:13.321Z,25.23
2023-02-22T05:57:47.771Z,34.40
2023-02-22T05:59:20.721Z,31.63
2023-02-22T06:00:53.566Z,36.78
2023-02-22T06:02:26.585Z,35.80
2023-02-22T06:03:59.328Z,33.28
2023-02-22T06:05:32.664Z,28.63
2023-02-22T06:07:05.412Z,26.50
2023-02-22T06:08:38.129Z,24.85
2023-02-22T06:10:10.825Z,24.75
2023-02-22T06:11:43.521Z,23.92
2023-02-22T06:13:17.593Z,22.85
2023-02-22T06:14:50.284Z,22.60
2023-02-22T06:16:23.682Z,21.15
2023-02-22T06:17:57.744Z,24.58
2023-02-22T06:19:30.542Z,21.05
2023-02-22T06:21:04.312Z,20.70
2023-02-22T06:22:37.006Z,19.52
2023-02-22T06:24:09.700Z,19.88
2023-02-22T06:25:42.386Z,20.23
2023-02-22T06:27:15.207Z,15.38
2023-02-22T06:28:49.482Z,16.15
2023-02-22T06:30:23.936Z,18.73
2023-02-22T06:31:57.149Z,16.08
2023-02-22T06:33:29.983Z,16.15
2023-02-22T06:35:02.758Z,15.55
2023-02-22T06:36:35.469Z,15.88
2023-02-22T06:38:08.167Z,13.95
2023-02-22T06:39:40.986Z,14.35
2023-02-22T06:41:15.679Z,16.65
2023-02-22T06:42:49.887Z,13.98
2023-02-22T06:44:23.949Z,14.88
2023-02-22T06:45:56.677Z,17.65
2023-02-22T06:47:28.675Z,15.15
2023-02-22T06:49:01.629Z,14.98
2023-02-22T06:50:35.915Z,15.32
2023-02-22T06:52:10.323Z,21.60
2023-02-22T06:53:43.006Z,25.13
2023-02-22T06:55:19.529Z,28.58
2023-02-22T06:56:52.246Z,27.75
2023-02-22T06:58:25.048Z,29.50
2023-02-22T06:59:59.058Z,30.35
2023-02-22T07:01:31.944Z,28.05
2023-02-22T07:03:05.679Z,34.85
2023-02-22T07:04:38.615Z,27.80
2023-02-22T07:06:11.405Z,33.35
2023-02-22T07:07:44.189Z,33.42
2023-02-22T07:09:18.426Z,44.70
2023-02-22T07:10:52.503Z,36.33
2023-02-22T07:12:24.230Z,35.08
2023-02-22T07:13:56.900Z,32.22
2023-02-22T07:15:32.836Z,32.30
2023-02-22T07:17:05.512Z,30.52
2023-02-22T07:18:38.554Z,34.70
2023-02-22T07:20:11.810Z,29.42
2023-02-22T07:21:44.486Z,30.50
2023-02-22T07:23:17.883Z,28.67
2023-02-22T07:24:50.585Z,34.80
2023-02-22T07:26:24.473Z,28.15
2023-02-22T07:27:57.181Z,29.67
2023-02-22T07:29:31.344Z,27.40
2023-02-22T07:31:05.896Z,27.40
2023-02-22T07:32:38.690Z,27.10
2023-02-22T07:34:12.996Z,29.92
2023-02-22T07:35:47.386Z,30.67
2023-02-22T07:37:21.140Z,37.65
2023-02-22T07:38:53.826Z,34.92
2023-02-22T07:40:28.006Z,32.30
2023-02-22T07:42:00.833Z,34.03
2023-02-22T07:43:34.249Z,43.45
2023-02-22T07:45:07.546Z,46.95
2023-02-22T07:46:41.616Z,84.35
2023-02-22T07:48:17.334Z,66.15
2023-02-22T07:49:50.308Z,58.53
2023-02-22T07:51:23.097Z,64.88
2023-02-22T07:52:58.214Z,51.78
2023-02-22T07:54:30.946Z,74.55
2023-02-22T07:56:05.599Z,51.63
2023-02-22T07:57:38.261Z,53.97
2023-02-22T07:59:10.946Z,81.72
2023-02-22T08:00:44.905Z,76.95
2023-02-22T08:02:19.172Z,59.67
2023-02-22T08:03:52.574Z,46.35
2023-02-22T08:05:26.732Z,43.70
2023-02-22T08:06:59.422Z,48.55
2023-02-22T08:08:32.167Z,51.72
2023-02-22T08:10:06.584Z,52.03
2023-02-22T08:11:39.285Z,49.72
2023-02-22T08:13:12.543Z,49.03
2023-02-22T08:14:45.365Z,48.63
2023-02-22T08:16:18.065Z,39.15
2023-02-22T08:17:53.295Z,41.20
2023-02-22T08:19:25.987Z,41.95
2023-02-22T08:20:58.871Z,55.17
2023-02-22T08:22:31.552Z,43.65
2023-02-22T08:24:04.496Z,35.17
2023-02-22T08:25:37.475Z,32.08
2023-02-22T08:27:10.194Z,32.85
2023-02-22T08:28:43.121Z,34.20
2023-02-22T08:30:18.257Z,33.63
2023-02-22T08:31:54.711Z,38.03
2023-02-22T08:33:28.788Z,40.92
2023-02-22T08:35:01.267Z,42.38
2023-02-22T08:36:34.364Z,45.83
2023-02-22T08:38:08.233Z,39.45
2023-02-22T08:39:40.945Z,44.30
2023-02-22T08:41:13.687Z,40.95
2023-02-22T08:42:46.890Z,45.92
2023-02-22T08:44:19.591Z,42.50
2023-02-22T08:45:54.439Z,40.38
2023-02-22T08:47:28.225Z,43.88
2023-02-22T08:49:02.992Z,42.85
2023-02-22T08:50:36.452Z,45.35
2023-02-22T08:52:09.493Z,39.35
2023-02-22T08:53:42.211Z,41.70
2023-02-22T08:55:14.929Z,37.10
2023-02-22T08:56:47.661Z,42.38
2023-02-22T08:58:20.355Z,42.65
2023-02-22T08:59:53.600Z,52.50
2023-02-22T09:01:32.903Z,46.67
2023-02-22T09:03:08.340Z,40.53
2023-02-22T09:04:42.497Z,45.72
2023-02-22T09:06:15.257Z,45.88
2023-02-22T09:07:48.375Z,47.90
2023-02-22T09:09:21.690Z,49.58
2023-02-22T09:10:54.679Z,61.97
2023-02-22T09:12:27.416Z,63.47
2023-02-22T09:14:00.155Z,59.55
2023-02-22T09:15:35.798Z,49.53
2023-02-22T09:17:08.571Z,52.22
2023-02-22T09:18:44.202Z,57.38
2023-02-22T09:20:20.183Z,51.75
2023-02-22T09:21:56.673Z,48.95
2023-02-22T09:23:29.767Z,49.88
2023-02-22T09:25:11.245Z,44.38
2023-02-22T09:26:53.301Z,50.58
2023-02-22T09:28:27.312Z,49.67
2023-02-22T09:30:00.985Z,46.80
2023-02-22T09:31:36.499Z,43.63
2023-02-22T09:33:11.628Z,43.33
2023-02-22T09:34:45.759Z,40.13
2023-02-22T09:36:21.658Z,42.30
2023-02-22T09:37:56.271Z,43.40
2023-02-22T09:39:29.164Z,38.58
2023-02-22T09:41:12.167Z,43.05
2023-02-22T09:42:56.409Z,39.38
2023-02-22T09:44:37.000Z,39.65
2023-02-22T09:46:20.237Z,38.80
2023-02-22T09:48:01.322Z,36.30
2023-02-22T09:49:47.217Z,39.10
2023-02-22T09:51:23.070Z,39.90
2023-02-22T09:53:04.118Z,42.00
2023-02-22T09:54:43.201Z,39.80
2023-02-22T09:56:18.482Z,41.53
2023-02-22T09:57:55.294Z,38.95
2023-02-22T09:59:31.207Z,36.22
2023-02-22T10:01:22.830Z,34.92
2023-02-22T10:03:06.825Z,35.63
2023-02-22T10:04:44.270Z,33.15
2023-02-22T10:06:21.494Z,34.88
2023-02-22T10:07:59.983Z,35.25
2023-02-22T10:09:34.572Z,30.38
2023-02-22T10:11:19.548Z,34.17
2023-02-22T10:13:01.973Z,33.13
2023-02-22T10:14:47.386Z,30.13
2023-02-22T10:16:30.621Z,33.83
2023-02-22T10:18:22.190Z,31.98
2023-02-22T10:20:06.036Z,29.98
2023-02-22T10:21:57.704Z,34.20
2023-02-22T10:23:37.639Z,34.38
2023-02-22T10:25:13.701Z,32.08
2023-02-22T10:26:47.059Z,31.80
2023-02-22T10:28:24.177Z,32.58
2023-02-22T10:30:15.499Z,33.00
2023-02-22T10:32:00.371Z,31.83
2023-02-22T10:33:37.702Z,32.00
2023-02-22T10:35:21.651Z,35.83
2023-02-22T10:36:59.686Z,32.77
2023-02-22T10:38:35.121Z,33.10
2023-02-22T10:40:17.214Z,31.00
2023-02-22T10:41:52.511Z,33.13
2023-02-22T10:43:25.872Z,32.60
2023-02-22T10:44:58.575Z,32.83
2023-02-22T10:46:34.027Z,35.97
2023-02-22T10:48:11.420Z,33.10
2023-02-22T10:49:47.848Z,34.87
2023-02-22T10:51:21.059Z,34.70
2023-02-22T10:52:55.091Z,33.57
2023-02-22T10:54:33.177Z,31.97
2023-02-22T10:56:08.185Z,33.33
2023-02-22T10:57:43.873Z,32.20
2023-02-22T10:59:28.847Z,33.77
2023-02-22T11:01:01.558Z,33.17
2023-02-22T11:02:36.529Z,31.50
2023-02-22T11:04:13.786Z,31.97
2023-02-22T11:05:47.076Z,30.97
2023-02-22T11:07:27.140Z,36.23
2023-02-22T11:09:11.492Z,32.07
2023-02-22T11:10:45.515Z,32.47
2023-02-22T11:12:21.287Z,35.10
2023-02-22T11:13:56.307Z,32.57
2023-02-22T11:15:29.868Z,32.83
2023-02-22T11:17:08.393Z,35.20
2023-02-22T11:18:41.129Z,33.60
2023-02-22T11:20:25.175Z,36.57
2023-02-22T11:22:01.789Z,33.70
2023-02-22T11:23:35.725Z,33.27
2023-02-22T11:25:09.277Z,33.87
2023-02-22T11:26:46.698Z,32.33
2023-02-22T11:28:30.815Z,33.57
2023-02-22T11:30:28.909Z,33.23
2023-02-22T11:32:05.259Z,33.17
2023-02-22T11:33:39.487Z,32.70
2023-02-22T11:35:35.459Z,32.17
2023-02-22T11:37:22.156Z,34.63
2023-02-22T11:38:59.334Z,28.47
2023-02-22T11:40:33.924Z,29.23
2023-02-22T11:42:23.356Z,29.40
2023-02-22T11:44:12.378Z,31.77
2023-02-22T11:46:02.375Z,30.63
2023-02-22T11:47:35.799Z,27.60
2023-02-22T11:49:11.587Z,31.03
2023-02-22T11:50:59.924Z,26.50
2023-02-22T11:52:38.662Z,27.80
2023-02-22T11:54:31.580Z,29.23
2023-02-22T11:56:22.757Z,26.43
2023-02-22T11:58:14.387Z,29.27
2023-02-22T12:00:00.722Z,27.87
2023-02-22T12:01:43.788Z,29.40
2023-02-22T12:03:34.438Z,26.93
2023-02-22T12:05:28.715Z,27.53
2023-02-22T12:07:29.945Z,26.83
2023-02-22T12:09:14.302Z,25.97
2023-02-22T12:10:56.171Z,27.10
2023-02-22T12:12:40.277Z,25.50
2023-02-22T12:14:22.556Z,26.20
2023-02-22T12:16:03.384Z,27.87
2023-02-22T12:18:05.798Z,26.60
2023-02-22T12:19:43.167Z,27.77
2023-02-22T12:21:19.300Z,28.37
2023-02-22T12:23:03.641Z,27.77
2023-02-22T12:24:39.355Z,24.90
2023-02-22T12:26:17.159Z,24.77
2023-02-22T12:27:53.966Z,25.90
2023-02-22T12:29:37.533Z,27.00
2023-02-22T12:31:20.954Z,26.43
2023-02-22T12:32:56.154Z,24.90
2023-02-22T12:34:35.868Z,27.40
2023-02-22T12:36:15.001Z,26.10
2023-02-22T12:37:58.362Z,26.90
2023-02-22T12:39:53.551Z,29.70
2023-02-22T12:41:31.158Z,33.73
2023-02-22T12:43:10.334Z,30.97
2023-02-22T12:44:49.503Z,29.47
2023-02-22T12:46:27.151Z,29.40
2023-02-22T12:48:18.299Z,31.47
2023-02-22T12:49:59.074Z,28.67
2023-02-22T12:51:41.147Z,31.03
2023-02-22T12:53:20.003Z,30.70
2023-02-22T12:55:00.565Z,33.87
2023-02-22T12:56:37.461Z,30.10
2023-02-22T12:58:21.623Z,31.50
2023-02-22T13:00:00.287Z,29.57
2023-02-22T13:01:38.873Z,29.67
2023-02-22T13:03:28.260Z,32.67
2023-02-22T13:05:02.122Z,29.37
2023-02-22T13:06:57.682Z,27.83
2023-02-22T13:08:36.559Z,28.70
2023-02-22T13:10:26.171Z,28.37
2023-02-22T13:12:07.120Z,29.83
2023-02-22T13:13:55.091Z,30.50
2023-02-22T13:15:33.787Z,30.67
2023-02-22T13:17:13.379Z,31.33
2023-02-22T13:18:51.478Z,31.57
2023-02-22T13:20:29.668Z,27.67
2023-02-22T13:22:08.323Z,30.00
2023-02-22T13:23:48.744Z,27.70
2023-02-22T13:25:28.158Z,28.27
2023-02-22T13:27:03.882Z,30.47
2023-02-22T13:28:44.785Z,29.13
2023-02-22T13:30:27.969Z,32.13
2023-02-22T13:32:21.034Z,29.07
2023-02-22T13:34:18.234Z,28.00
2023-02-22T13:36:19.906Z,31.03
2023-02-22T13:38:30.694Z,31.70
2023-02-22T13:40:22.137Z,32.73
2023-02-22T13:42:23.571Z,31.27
2023-02-22T13:44:26.064Z,29.40
2023-02-22T13:46:20.890Z,30.43
2023-02-22T13:48:39.902Z,30.27
2023-02-22T13:50:44.324Z,30.87
2023-02-22T13:52:20.299Z,31.27
2023-02-22T13:53:56.770Z,29.47
2023-02-22T13:55:34.377Z,27.13
2023-02-22T13:57:19.908Z,29.83
2023-02-22T13:58:54.756Z,32.10
2023-02-22T14:00:44.299Z,33.47
2023-02-22T14:03:00.863Z,27.73
2023-02-22T14:04:42.853Z,30.73
2023-02-22T14:06:37.586Z,31.87
2023-02-22T14:08:45.780Z,33.87
2023-02-22T14:10:39.667Z,35.83
2023-02-22T14:12:48.534Z,32.43
2023-02-22T14:14:22.108Z,30.63
2023-02-22T14:16:21.622Z,30.87
2023-02-22T14:17:59.642Z,28.00
2023-02-22T14:19:32.408Z,31.53
2023-02-22T14:21:11.016Z,32.47
2023-02-22T14:22:46.938Z,30.53
2023-02-22T14:24:20.691Z,30.37
2023-02-22T14:25:53.937Z,29.63
2023-02-22T14:27:39.527Z,30.63
2023-02-22T14:29:21.164Z,31.03
2023-02-22T14:31:07.321Z,29.97
2023-02-22T14:32:40.270Z,29.47
2023-02-22T14:34:14.733Z,29.43
2023-02-22T14:35:50.135Z,28.97
2023-02-22T14:37:27.851Z,30.07
2023-02-22T14:39:08.602Z,30.20
2023-02-22T14:40:43.546Z,32.27
2023-02-22T14:42:20.204Z,32.47
2023-02-22T14:43:55.506Z,30.20
2023-02-22T14:45:33.231Z,32.07
2023-02-22T14:47:08.648Z,30.60
2023-02-22T14:48:43.283Z,31.53
2023-02-22T14:50:23.078Z,26.53
2023-02-22T14:51:59.174Z,41.70
2023-02-22T14:53:39.161Z,33.90
2023-02-22T14:55:21.226Z,33.00
2023-02-22T14:57:11.984Z,31.87
2023-02-22T14:58:49.447Z,33.33
2023-02-22T15:00:30.972Z,30.37
2023-02-22T15:02:11.669Z,31.10
2023-02-22T15:03:45.497Z,32.00
2023-02-22T15:05:20.775Z,30.50
2023-02-22T15:06:54.721Z,29.13
2023-02-22T15:08:28.466Z,32.00
2023-02-22T15:10:23.877Z,28.10
2023-02-22T15:12:12.914Z,31.50
2023-02-22T15:13:51.438Z,27.53
2023-02-22T15:15:24.682Z,30.43
2023-02-22T15:17:00.359Z,31.03
2023-02-22T15:18:38.118Z,30.67
2023-02-22T15:20:15.774Z,32.43
2023-02-22T15:21:49.950Z,31.77
2023-02-22T15:23:24.516Z,33.83
2023-02-22T15:25:01.095Z,33.20
2023-02-22T15:26:37.410Z,32.83
2023-02-22T15:28:15.128Z,33.50
2023-02-22T15:29:47.822Z,35.73
2023-02-22T15:31:31.391Z,32.87
2023-02-22T15:33:24.072Z,34.33
2023-02-22T15:35:06.412Z,32.10
2023-02-22T15:36:39.538Z,34.07
2023-02-22T15:38:28.368Z,31.80
2023-02-22T15:40:14.325Z,33.97
2023-02-22T15:41:48.389Z,30.77
2023-02-22T15:43:24.357Z,34.80
2023-02-22T15:44:58.036Z,32.77
2023-02-22T15:46:31.671Z,37.20
2023-02-22T15:48:05.026Z,32.50
2023-02-22T15:49:37.913Z,32.13
2023-02-22T15:51:13.959Z,32.57
2023-02-22T15:52:53.873Z,31.90
2023-02-22T15:54:28.044Z,31.13
2023-02-22T15:56:03.705Z,31.87
2023-02-22T15:57:37.750Z,32.33
2023-02-22T15:59:14.297Z,31.50
2023-02-22T16:00:50.143Z,32.47
2023-02-22T16:02:36.868Z,33.30
2023-02-22T16:04:17.948Z,33.80
2023-02-22T16:05:55.491Z,35.27
2023-02-22T16:07:28.460Z,37.20
2023-02-22T16:09:07.743Z,34.37
2023-02-22T16:10:54.172Z,29.80
2023-02-22T16:12:29.213Z,30.43
2023-02-22T16:14:05.577Z,33.20
2023-02-22T16:15:38.441Z,34.30
2023-02-22T16:17:31.614Z,36.10
2023-02-22T16:19:28.738Z,32.70
2023-02-22T16:21:03.821Z,31.30
2023-02-22T16:22:38.935Z,32.30
2023-02-22T16:24:27.207Z,32.73
2023-02-22T16:26:18.661Z,34.13
2023-02-22T16:27:55.765Z,34.60
2023-02-22T16:29:29.886Z,34.50
2023-02-22T16:31:04.029Z,31.17
2023-02-22T16:32:36.901Z,35.00
2023-02-22T16:34:10.857Z,33.43
2023-02-22T16:35:52.036Z,31.87
2023-02-22T16:37:25.096Z,32.47
2023-02-22T16:38:57.806Z,34.43
2023-02-22T16:40:34.608Z,32.43
2023-02-22T16:42:09.791Z,34.40
2023-02-22T16:43:46.110Z,32.90
2023-02-22T16:45:21.849Z,35.60
2023-02-22T16:46:55.593Z,90.90
2023-02-22T16:48:30.425Z,44.13
2023-02-22T16:50:03.470Z,35.77
2023-02-22T16:51:42.346Z,35.33
2023-02-22T16:53:19.858Z,36.90
2023-02-22T16:54:52.886Z,37.73
2023-02-22T16:56:31.017Z,38.80
2023-02-22T16:58:04.965Z,33.57
2023-02-22T16:59:40.043Z,39.43
2023-02-22T17:01:14.332Z,37.00
2023-02-22T17:02:47.068Z,34.70
2023-02-22T17:04:22.116Z,35.67
2023-02-22T17:05:55.102Z,34.87
2023-02-22T17:07:30.690Z,33.80
2023-02-22T17:09:03.394Z,37.30
2023-02-22T17:10:36.430Z,37.13
2023-02-22T17:12:09.685Z,39.00
2023-02-22T17:13:42.626Z,44.17
2023-02-22T17:15:22.111Z,50.90
2023-02-22T17:16:59.377Z,55.63
2023-02-22T17:18:34.003Z,78.80
2023-02-22T17:20:11.433Z,83.37
2023-02-22T17:21:44.237Z,72.67
2023-02-22T17:23:17.617Z,71.20
2023-02-22T17:24:50.322Z,66.70
2023-02-22T17:26:23.411Z,59.00
2023-02-22T17:27:56.106Z,60.77
2023-02-22T17:29:29.415Z,54.87
2023-02-22T17:31:02.486Z,53.13
2023-02-22T17:32:36.690Z,47.37
2023-02-22T17:34:09.549Z,43.90
2023-02-22T17:35:42.258Z,39.53
2023-02-22T17:37:14.945Z,41.33
2023-02-22T17:38:47.641Z,41.63
2023-02-22T17:40:20.370Z,42.10
2023-02-22T17:41:57.499Z,39.80
2023-02-22T17:43:30.313Z,38.77
2023-02-22T17:45:03.077Z,42.17
2023-02-22T17:46:36.522Z,42.63
2023-02-22T17:48:10.669Z,35.83
2023-02-22T17:49:44.113Z,40.93
2023-02-22T17:51:17.294Z,41.50
2023-02-22T17:52:51.835Z,36.27
2023-02-22T17:54:26.853Z,38.40
2023-02-22T17:55:59.549Z,38.97
2023-02-22T17:57:32.238Z,41.90
2023-02-22T17:59:08.001Z,42.43
2023-02-22T18:00:42.625Z,39.77
2023-02-22T18:02:15.365Z,43.07
2023-02-22T18:03:49.599Z,42.23
2023-02-22T18:05:22.436Z,40.03
2023-02-22T18:06:55.126Z,40.33
2023-02-22T18:08:31.045Z,41.40
2023-02-22T18:10:05.169Z,40.90
2023-02-22T18:11:39.433Z,40.27
2023-02-22T18:13:16.556Z,59.47
2023-02-22T18:14:49.409Z,63.77
2023-02-22T18:16:22.207Z,42.60
2023-02-22T18:17:55.789Z,40.03
2023-02-22T18:19:29.819Z,40.93
2023-02-22T18:21:02.540Z,43.77
2023-02-22T18:22:35.230Z,39.63
2023-02-22T18:24:08.339Z,37.73
2023-02-22T18:25:42.253Z,44.33
2023-02-22T18:27:15.052Z,43.30
2023-02-22T18:28:49.027Z,39.80
2023-02-22T18:30:21.959Z,47.40
2023-02-22T18:31:54.770Z,39.03
2023-02-22T18:33:27.705Z,39.23
2023-02-22T18:35:02.411Z,37.53
2023-02-22T18:36:35.143Z,35.37
2023-02-22T18:38:09.268Z,35.10
2023-02-22T18:39:43.129Z,42.43
2023-02-22T18:41:17.847Z,44.00
2023-02-22T18:42:50.873Z,50.70
2023-02-22T18:44:23.555Z,73.67
2023-02-22T18:46:05.136Z,86.03
2023-02-22T18:47:42.965Z,90.10
2023-02-22T18:49:15.707Z,77.90
2023-02-22T18:50:49.718Z,58.00
2023-02-22T18:52:22.417Z,47.40
2023-02-22T18:54:00.178Z,52.67
2023-02-22T18:55:37.099Z,58.90
2023-02-22T18:57:12.272Z,67.53
2023-02-22T18:58:45.028Z,68.27
2023-02-22T19:00:23.092Z,70.00
2023-02-22T19:01:55.803Z,70.50
2023-02-22T19:03:28.958Z,67.97
2023-02-22T19:05:02.508Z,62.37
2023-02-22T19:06:36.596Z,56.45
2023-02-22T19:08:11.205Z,48.13
2023-02-22T19:09:43.999Z,52.70
2023-02-22T19:11:19.187Z,47.67
2023-02-22T19:12:51.881Z,44.90
2023-02-22T19:14:24.561Z,38.00
2023-02-22T19:15:56.367Z,41.40
2023-02-22T19:17:31.053Z,43.30
2023-02-22T19:19:03.876Z,42.47
2023-02-22T19:20:36.710Z,41.73
2023-02-22T19:22:14.915Z,41.92
2023-02-22T19:23:48.263Z,41.20
2023-02-22T19:25:21.229Z,41.80
2023-02-22T19:26:57.366Z,44.53
2023-02-22T19:28:33.881Z,41.27
2023-02-22T19:30:08.105Z,42.10
2023-02-22T19:31:41.937Z,45.17
2023-02-22T19:33:14.722Z,46.67
2023-02-22T19:34:47.786Z,47.23
2023-02-22T19:36:22.859Z,52.10
2023-02-22T19:37:58.120Z,50.27
2023-02-22T19:39:30.871Z,48.13
2023-02-22T19:41:10.191Z,46.78
2023-02-22T19:42:43.143Z,52.53
2023-02-22T19:44:15.848Z,57.67
2023-02-22T19:45:48.611Z,73.25
2023-02-22T19:47:22.496Z,71.47
2023-02-22T19:48:56.172Z,54.97
2023-02-22T19:50:28.934Z,57.63
2023-02-22T19:52:03.719Z,47.05
2023-02-22T19:53:39.391Z,49.70
2023-02-22T19:55:13.326Z,48.42
2023-02-22T19:56:50.751Z,49.08
2023-02-22T19:58:23.450Z,48.77
2023-02-22T19:59:56.160Z,44.35
2023-02-22T20:01:32.850Z,45.23
2023-02-22T20:03:06.584Z,44.37
2023-02-22T20:04:39.355Z,42.85
2023-02-22T20:06:12.325Z,46.70
2023-02-22T20:07:45.028Z,45.33
2023-02-22T20:09:21.329Z,41.42
2023-02-22T20:10:58.567Z,44.35
2023-02-22T20:12:31.986Z,39.17
2023-02-22T20:14:06.643Z,42.35
2023-02-22T20:15:39.755Z,45.17
2023-02-22T20:17:12.845Z,42.50
2023-02-22T20:18:46.681Z,39.28
2023-02-22T20:20:19.601Z,38.50
2023-02-22T20:21:53.006Z,40.42
2023-02-22T20:23:25.724Z,39.13
2023-02-22T20:24:59.810Z,44.17
2023-02-22T20:26:34.366Z,43.93
2023-02-22T20:28:07.846Z,38.77
2023-02-22T20:29:40.885Z,44.70
2023-02-22T20:31:15.818Z,39.53
2023-02-22T20:32:48.933Z,44.53
2023-02-22T20:34:21.774Z,37.70
2023-02-22T20:35:54.503Z,41.20
2023-02-22T20:37:27.251Z,41.88
2023-02-22T20:39:00.968Z,46.92
2023-02-22T20:40:35.005Z,45.40
2023-02-22T20:42:08.605Z,45.33
2023-02-22T20:43:41.335Z,41.13
2023-02-22T20:45:16.108Z,42.73
2023-02-22T20:46:49.353Z,43.90